sensor_id;sensor_type;location;lat;lon;timestamp;temperature;humidity
55121;DHT22;41019;48.512;9.036;2024-02-21T00:00:02;5.10;99.90
55121;DHT22;41019;48.512;9.036;2024-02-21T00:02:29;5.10;99.90
55121;DHT22;41019;48.512;9.036;2024-02-21T00:04:55;5.10;99.90
55121;DHT22;41019;48.512;9.036;2024-02-21T00:07:21;5.10;99.90
55121;DHT22;41019;48.512;9.036;2024-02-21T00:09:47;5.10;99.90
55121;DHT22;41019;48.512;9.036;2024-02-21T00:12:13;5.10;99.90
55121;DHT22;41019;48.512;9.036;2024-02-21T00:14:39;5.10;99.90
55121;DHT22;41019;48.512;9.036;2024-02-21T00:17:06;5.10;99.90
55121;DHT22;41019;48.512;9.036;2024-02-21T00:19:34;5.10;99.90
55121;DHT22;41019;48.512;9.036;2024-02-21T00:22:00;5.10;99.90
55121;DHT22;41019;48.512;9.036;2024-02-21T00:24:25;5.10;99.90
55121;DHT22;41019;48.512;9.036;2024-02-21T00:26:51;5.10;99.90
55121;DHT22;41019;48.512;9.036;2024-02-21T00:29:17;5.10;99.90
55121;DHT22;41019;48.512;9.036;2024-02-21T00:31:43;5.10;99.90
55121;DHT22;41019;48.512;9.036;2024-02-21T00:34:10;5.10;99.90
55121;DHT22;41019;48.512;9.036;2024-02-21T00:36:38;5.10;99.90
55121;DHT22;41019;48.512;9.036;2024-02-21T00:39:04;5.10;99.90
55121;DHT22;41019;48.512;9.036;2024-02-21T00:41:30;5.10;99.90
55121;DHT22;41019;48.512;9.036;2024-02-21T00:43:56;5.10;99.90
55121;DHT22;41019;48.512;9.036;2024-02-21T00:46:22;5.20;99.90
55121;DHT22;41019;48.512;9.036;2024-02-21T00:48:48;5.20;99.90
55121;DHT22;41019;48.512;9.036;2024-02-21T00:51:15;5.20;99.90
55121;DHT22;41019;48.512;9.036;2024-02-21T00:53:42;5.20;99.90
55121;DHT22;41019;48.512;9.036;2024-02-21T00:56:08;5.20;99.90
55121;DHT22;41019;48.512;9.036;2024-02-21T00:58:34;5.20;99.90
55121;DHT22;41019;48.512;9.036;2024-02-21T01:01:03;5.20;99.90
55121;DHT22;41019;48.512;9.036;2024-02-21T01:03:28;5.20;99.90
55121;DHT22;41019;48.512;9.036;2024-02-21T01:05:54;5.20;99.90
55121;DHT22;41019;48.512;9.036;2024-02-21T01:08:20;5.20;99.90
55121;DHT22;41019;48.512;9.036;2024-02-21T01:10:46;5.20;99.90
55121;DHT22;41019;48.512;9.036;2024-02-21T01:13:12;5.20;99.90
55121;DHT22;41019;48.512;9.036;2024-02-21T01:15:37;5.20;99.90
55121;DHT22;41019;48.512;9.036;2024-02-21T01:18:03;5.20;99.90
55121;DHT22;41019;48.512;9.036;2024-02-21T01:20:30;5.20;99.90
55121;DHT22;41019;48.512;9.036;2024-02-21T01:22:56;5.30;99.90
55121;DHT22;41019;48.512;9.036;2024-02-21T01:25:23;5.30;99.90
55121;DHT22;41019;48.512;9.036;2024-02-21T01:27:49;5.30;99.90
55121;DHT22;41019;48.512;9.036;2024-02-21T01:30:15;5.30;99.90
55121;DHT22;41019;48.512;9.036;2024-02-21T01:32:40;5.30;99.90
55121;DHT22;41019;48.512;9.036;2024-02-21T01:35:08;5.30;99.90
55121;DHT22;41019;48.512;9.036;2024-02-21T01:37:33;5.30;99.90
55121;DHT22;41019;48.512;9.036;2024-02-21T01:39:59;5.30;99.90
55121;DHT22;41019;48.512;9.036;2024-02-21T01:42:25;5.30;99.90
55121;DHT22;41019;48.512;9.036;2024-02-21T01:44:51;5.30;99.90
55121;DHT22;41019;48.512;9.036;2024-02-21T01:47:17;5.30;99.90
55121;DHT22;41019;48.512;9.036;2024-02-21T01:49:43;5.30;99.90
55121;DHT22;41019;48.512;9.036;2024-02-21T01:52:11;5.40;99.90
55121;DHT22;41019;48.512;9.036;2024-02-21T01:54:39;5.20;99.90
55121;DHT22;41019;48.512;9.036;2024-02-21T01:57:06;5.30;99.90
55121;DHT22;41019;48.512;9.036;2024-02-21T01:59:32;5.40;99.90
55121;DHT22;41019;48.512;9.036;2024-02-21T02:01:58;5.40;99.90
55121;DHT22;41019;48.512;9.036;2024-02-21T02:04:25;5.40;99.90
55121;DHT22;41019;48.512;9.036;2024-02-21T02:06:54;5.40;99.90
55121;DHT22;41019;48.512;9.036;2024-02-21T02:09:21;5.40;99.90
55121;DHT22;41019;48.512;9.036;2024-02-21T02:11:47;5.40;99.90
55121;DHT22;41019;48.512;9.036;2024-02-21T02:14:13;5.40;99.90
55121;DHT22;41019;48.512;9.036;2024-02-21T02:16:38;5.40;99.90
55121;DHT22;41019;48.512;9.036;2024-02-21T02:19:04;5.40;99.90
55121;DHT22;41019;48.512;9.036;2024-02-21T02:21:34;5.40;99.90
55121;DHT22;41019;48.512;9.036;2024-02-21T02:24:04;5.40;99.90
55121;DHT22;41019;48.512;9.036;2024-02-21T02:26:30;5.40;99.90
55121;DHT22;41019;48.512;9.036;2024-02-21T02:28:57;5.40;99.90
55121;DHT22;41019;48.512;9.036;2024-02-21T02:31:22;5.30;99.90
55121;DHT22;41019;48.512;9.036;2024-02-21T02:33:49;5.30;99.90
55121;DHT22;41019;48.512;9.036;2024-02-21T02:36:15;5.30;99.90
55121;DHT22;41019;48.512;9.036;2024-02-21T02:38:41;5.30;99.90
55121;DHT22;41019;48.512;9.036;2024-02-21T02:41:07;5.30;99.90
55121;DHT22;41019;48.512;9.036;2024-02-21T02:43:33;5.30;99.90
55121;DHT22;41019;48.512;9.036;2024-02-21T02:45:59;5.30;99.90
55121;DHT22;41019;48.512;9.036;2024-02-21T02:48:24;5.30;99.90
55121;DHT22;41019;48.512;9.036;2024-02-21T02:50:50;5.30;99.90
55121;DHT22;41019;48.512;9.036;2024-02-21T02:53:16;5.30;99.90
55121;DHT22;41019;48.512;9.036;2024-02-21T02:55:42;5.40;99.90
55121;DHT22;41019;48.512;9.036;2024-02-21T02:58:08;5.30;99.90
55121;DHT22;41019;48.512;9.036;2024-02-21T03:00:34;5.40;99.90
55121;DHT22;41019;48.512;9.036;2024-02-21T03:03:02;5.40;99.90
55121;DHT22;41019;48.512;9.036;2024-02-21T03:05:31;5.40;99.90
55121;DHT22;41019;48.512;9.036;2024-02-21T03:07:57;5.40;99.90
55121;DHT22;41019;48.512;9.036;2024-02-21T03:10:23;5.40;99.90
55121;DHT22;41019;48.512;9.036;2024-02-21T03:12:49;5.50;99.90
55121;DHT22;41019;48.512;9.036;2024-02-21T03:15:14;5.50;99.90
55121;DHT22;41019;48.512;9.036;2024-02-21T03:17:41;5.50;99.90
55121;DHT22;41019;48.512;9.036;2024-02-21T03:20:07;5.50;99.90
55121;DHT22;41019;48.512;9.036;2024-02-21T03:22:36;5.50;99.90
55121;DHT22;41019;48.512;9.036;2024-02-21T03:25:02;5.50;99.90
55121;DHT22;41019;48.512;9.036;2024-02-21T03:27:28;5.60;99.90
55121;DHT22;41019;48.512;9.036;2024-02-21T03:29:54;5.50;99.90
55121;DHT22;41019;48.512;9.036;2024-02-21T03:32:20;5.50;99.90
55121;DHT22;41019;48.512;9.036;2024-02-21T03:34:46;5.50;99.90
55121;DHT22;41019;48.512;9.036;2024-02-21T03:37:12;5.50;99.90
55121;DHT22;41019;48.512;9.036;2024-02-21T03:39:39;5.50;99.90
55121;DHT22;41019;48.512;9.036;2024-02-21T03:42:06;5.50;99.90
55121;DHT22;41019;48.512;9.036;2024-02-21T03:44:32;5.50;99.90
55121;DHT22;41019;48.512;9.036;2024-02-21T03:46:59;5.50;99.90
55121;DHT22;41019;48.512;9.036;2024-02-21T03:49:26;5.50;99.90
55121;DHT22;41019;48.512;9.036;2024-02-21T03:51:52;5.50;99.90
55121;DHT22;41019;48.512;9.036;2024-02-21T03:54:18;5.40;99.90
55121;DHT22;41019;48.512;9.036;2024-02-21T03:56:44;5.40;99.90
55121;DHT22;41019;48.512;9.036;2024-02-21T03:59:10;5.40;99.90
55121;DHT22;41019;48.512;9.036;2024-02-21T04:01:36;5.40;99.90
55121;DHT22;41019;48.512;9.036;2024-02-21T04:04:02;5.40;99.90
55121;DHT22;41019;48.512;9.036;2024-02-21T04:06:28;5.40;99.90
55121;DHT22;41019;48.512;9.036;2024-02-21T04:08:54;5.40;99.90
55121;DHT22;41019;48.512;9.036;2024-02-21T04:11:20;5.40;99.90
55121;DHT22;41019;48.512;9.036;2024-02-21T04:13:46;5.30;99.90
55121;DHT22;41019;48.512;9.036;2024-02-21T04:16:14;5.30;99.90
55121;DHT22;41019;48.512;9.036;2024-02-21T04:18:42;5.60;99.90
55121;DHT22;41019;48.512;9.036;2024-02-21T04:21:14;5.30;99.90
55121;DHT22;41019;48.512;9.036;2024-02-21T04:23:41;5.30;99.90
55121;DHT22;41019;48.512;9.036;2024-02-21T04:26:07;5.20;99.90
55121;DHT22;41019;48.512;9.036;2024-02-21T04:28:33;5.20;99.90
55121;DHT22;41019;48.512;9.036;2024-02-21T04:30:59;5.20;99.90
55121;DHT22;41019;48.512;9.036;2024-02-21T04:33:25;5.20;99.90
55121;DHT22;41019;48.512;9.036;2024-02-21T04:35:51;5.10;99.90
55121;DHT22;41019;48.512;9.036;2024-02-21T04:38:17;5.10;99.90
55121;DHT22;41019;48.512;9.036;2024-02-21T04:40:43;5.10;99.90
55121;DHT22;41019;48.512;9.036;2024-02-21T04:43:09;5.10;99.90
55121;DHT22;41019;48.512;9.036;2024-02-21T04:45:34;5.00;99.90
55121;DHT22;41019;48.512;9.036;2024-02-21T04:48:00;5.00;99.90
55121;DHT22;41019;48.512;9.036;2024-02-21T04:50:26;5.00;99.90
55121;DHT22;41019;48.512;9.036;2024-02-21T04:52:52;5.00;99.90
55121;DHT22;41019;48.512;9.036;2024-02-21T04:55:18;4.90;99.90
55121;DHT22;41019;48.512;9.036;2024-02-21T04:57:44;4.60;99.90
55121;DHT22;41019;48.512;9.036;2024-02-21T05:00:10;4.80;99.90
55121;DHT22;41019;48.512;9.036;2024-02-21T05:02:36;4.80;99.90
55121;DHT22;41019;48.512;9.036;2024-02-21T05:05:02;4.80;99.90
55121;DHT22;41019;48.512;9.036;2024-02-21T05:07:28;4.80;99.90
55121;DHT22;41019;48.512;9.036;2024-02-21T05:09:55;4.70;99.90
55121;DHT22;41019;48.512;9.036;2024-02-21T05:12:21;4.70;99.90
55121;DHT22;41019;48.512;9.036;2024-02-21T05:14:47;4.60;99.90
55121;DHT22;41019;48.512;9.036;2024-02-21T05:17:14;4.60;99.90
55121;DHT22;41019;48.512;9.036;2024-02-21T05:19:40;4.60;99.90
55121;DHT22;41019;48.512;9.036;2024-02-21T05:22:06;4.60;99.90
55121;DHT22;41019;48.512;9.036;2024-02-21T05:24:32;4.50;99.90
55121;DHT22;41019;48.512;9.036;2024-02-21T05:26:58;4.50;99.90
55121;DHT22;41019;48.512;9.036;2024-02-21T05:29:26;4.40;99.90
55121;DHT22;41019;48.512;9.036;2024-02-21T05:34:25;4.40;99.90
55121;DHT22;41019;48.512;9.036;2024-02-21T05:36:51;4.40;99.90
55121;DHT22;41019;48.512;9.036;2024-02-21T05:39:18;4.40;99.90
55121;DHT22;41019;48.512;9.036;2024-02-21T05:41:44;4.30;99.90
55121;DHT22;41019;48.512;9.036;2024-02-21T05:44:10;4.30;99.90
55121;DHT22;41019;48.512;9.036;2024-02-21T05:46:36;4.30;99.90
55121;DHT22;41019;48.512;9.036;2024-02-21T05:49:02;4.30;99.90
55121;DHT22;41019;48.512;9.036;2024-02-21T05:51:31;4.30;99.90
55121;DHT22;41019;48.512;9.036;2024-02-21T05:53:57;4.30;99.90
55121;DHT22;41019;48.512;9.036;2024-02-21T05:56:23;4.20;99.90
55121;DHT22;41019;48.512;9.036;2024-02-21T05:58:49;4.20;99.90
55121;DHT22;41019;48.512;9.036;2024-02-21T06:01:15;4.20;99.90
55121;DHT22;41019;48.512;9.036;2024-02-21T06:03:41;4.30;99.90
55121;DHT22;41019;48.512;9.036;2024-02-21T06:06:07;4.30;99.90
55121;DHT22;41019;48.512;9.036;2024-02-21T06:08:33;4.20;99.90
55121;DHT22;41019;48.512;9.036;2024-02-21T06:10:58;4.30;99.90
55121;DHT22;41019;48.512;9.036;2024-02-21T06:13:24;4.30;99.90
55121;DHT22;41019;48.512;9.036;2024-02-21T06:15:50;4.30;99.90
55121;DHT22;41019;48.512;9.036;2024-02-21T06:18:20;4.30;99.90
55121;DHT22;41019;48.512;9.036;2024-02-21T06:20:47;4.30;99.90
55121;DHT22;41019;48.512;9.036;2024-02-21T06:23:14;4.30;99.90
55121;DHT22;41019;48.512;9.036;2024-02-21T06:25:40;4.30;99.90
55121;DHT22;41019;48.512;9.036;2024-02-21T06:28:06;4.20;99.90
55121;DHT22;41019;48.512;9.036;2024-02-21T06:30:32;4.20;99.90
55121;DHT22;41019;48.512;9.036;2024-02-21T06:32:58;4.20;99.90
55121;DHT22;41019;48.512;9.036;2024-02-21T06:35:24;4.20;99.90
55121;DHT22;41019;48.512;9.036;2024-02-21T06:37:51;4.20;99.90
55121;DHT22;41019;48.512;9.036;2024-02-21T06:40:19;4.20;99.90
55121;DHT22;41019;48.512;9.036;2024-02-21T06:42:45;4.10;99.90
55121;DHT22;41019;48.512;9.036;2024-02-21T06:45:11;4.20;99.90
55121;DHT22;41019;48.512;9.036;2024-02-21T06:47:37;4.10;99.90
55121;DHT22;41019;48.512;9.036;2024-02-21T06:50:03;4.10;99.90
55121;DHT22;41019;48.512;9.036;2024-02-21T06:52:29;4.10;99.90
55121;DHT22;41019;48.512;9.036;2024-02-21T06:54:56;4.20;99.90
55121;DHT22;41019;48.512;9.036;2024-02-21T06:57:22;4.20;99.90
55121;DHT22;41019;48.512;9.036;2024-02-21T06:59:48;4.20;99.90
55121;DHT22;41019;48.512;9.036;2024-02-21T07:02:14;4.20;99.90
55121;DHT22;41019;48.512;9.036;2024-02-21T07:04:40;4.30;99.90
55121;DHT22;41019;48.512;9.036;2024-02-21T07:07:06;4.30;99.90
55121;DHT22;41019;48.512;9.036;2024-02-21T07:09:31;4.30;99.90
55121;DHT22;41019;48.512;9.036;2024-02-21T07:11:58;4.40;99.90
55121;DHT22;41019;48.512;9.036;2024-02-21T07:14:24;4.40;99.90
55121;DHT22;41019;48.512;9.036;2024-02-21T07:16:51;4.40;99.90
55121;DHT22;41019;48.512;9.036;2024-02-21T07:19:17;4.50;99.90
55121;DHT22;41019;48.512;9.036;2024-02-21T07:21:43;4.60;99.90
55121;DHT22;41019;48.512;9.036;2024-02-21T07:24:09;4.60;99.90
55121;DHT22;41019;48.512;9.036;2024-02-21T07:26:35;4.70;99.90
55121;DHT22;41019;48.512;9.036;2024-02-21T07:29:01;4.60;99.90
55121;DHT22;41019;48.512;9.036;2024-02-21T07:31:27;4.80;99.90
55121;DHT22;41019;48.512;9.036;2024-02-21T07:33:53;4.90;99.90
55121;DHT22;41019;48.512;9.036;2024-02-21T07:36:31;5.00;99.90
55121;DHT22;41019;48.512;9.036;2024-02-21T07:38:57;5.10;99.90
55121;DHT22;41019;48.512;9.036;2024-02-21T07:41:22;5.20;99.90
55121;DHT22;41019;48.512;9.036;2024-02-21T07:43:48;5.30;99.90
55121;DHT22;41019;48.512;9.036;2024-02-21T07:46:14;5.50;99.90
55121;DHT22;41019;48.512;9.036;2024-02-21T07:48:40;5.60;99.90
55121;DHT22;41019;48.512;9.036;2024-02-21T07:51:06;5.80;99.90
55121;DHT22;41019;48.512;9.036;2024-02-21T07:53:32;6.10;99.90
55121;DHT22;41019;48.512;9.036;2024-02-21T07:55:58;6.10;99.90
55121;DHT22;41019;48.512;9.036;2024-02-21T07:58:24;6.20;99.90
55121;DHT22;41019;48.512;9.036;2024-02-21T08:00:50;6.30;99.40
55121;DHT22;41019;48.512;9.036;2024-02-21T08:03:16;6.40;99.30
55121;DHT22;41019;48.512;9.036;2024-02-21T08:05:43;6.50;99.40
55121;DHT22;41019;48.512;9.036;2024-02-21T08:08:09;6.60;99.40
55121;DHT22;41019;48.512;9.036;2024-02-21T08:10:35;6.70;99.10
55121;DHT22;41019;48.512;9.036;2024-02-21T08:13:01;6.80;98.90
55121;DHT22;41019;48.512;9.036;2024-02-21T08:15:27;6.80;98.80
55121;DHT22;41019;48.512;9.036;2024-02-21T08:17:55;6.90;98.50
55121;DHT22;41019;48.512;9.036;2024-02-21T08:20:25;7.00;98.50
55121;DHT22;41019;48.512;9.036;2024-02-21T08:22:52;7.10;98.30
55121;DHT22;41019;48.512;9.036;2024-02-21T08:25:18;7.10;98.30
55121;DHT22;41019;48.512;9.036;2024-02-21T08:27:43;7.20;98.10
55121;DHT22;41019;48.512;9.036;2024-02-21T08:30:10;7.30;97.80
55121;DHT22;41019;48.512;9.036;2024-02-21T08:32:36;7.40;97.70
55121;DHT22;41019;48.512;9.036;2024-02-21T08:35:02;7.40;97.70
55121;DHT22;41019;48.512;9.036;2024-02-21T08:37:28;7.50;97.60
55121;DHT22;41019;48.512;9.036;2024-02-21T08:39:54;7.60;97.70
55121;DHT22;41019;48.512;9.036;2024-02-21T08:42:20;7.70;97.40
55121;DHT22;41019;48.512;9.036;2024-02-21T08:44:46;7.80;97.60
55121;DHT22;41019;48.512;9.036;2024-02-21T08:47:12;7.90;97.80
55121;DHT22;41019;48.512;9.036;2024-02-21T08:49:38;7.90;97.70
55121;DHT22;41019;48.512;9.036;2024-02-21T08:52:04;8.00;97.70
55121;DHT22;41019;48.512;9.036;2024-02-21T08:54:31;8.10;97.60
55121;DHT22;41019;48.512;9.036;2024-02-21T08:57:01;8.20;97.70
55121;DHT22;41019;48.512;9.036;2024-02-21T08:59:26;8.20;97.80
55121;DHT22;41019;48.512;9.036;2024-02-21T09:01:53;8.30;97.70
55121;DHT22;41019;48.512;9.036;2024-02-21T09:04:22;8.40;97.30
55121;DHT22;41019;48.512;9.036;2024-02-21T09:06:48;8.50;97.10
55121;DHT22;41019;48.512;9.036;2024-02-21T09:09:13;8.60;97.30
55121;DHT22;41019;48.512;9.036;2024-02-21T09:11:39;8.60;97.00
55121;DHT22;41019;48.512;9.036;2024-02-21T09:14:06;8.70;97.00
55121;DHT22;41019;48.512;9.036;2024-02-21T09:16:32;8.80;96.90
55121;DHT22;41019;48.512;9.036;2024-02-21T09:18:58;8.90;96.50
55121;DHT22;41019;48.512;9.036;2024-02-21T09:21:24;9.00;96.00
55121;DHT22;41019;48.512;9.036;2024-02-21T09:23:49;9.00;95.70
55121;DHT22;41019;48.512;9.036;2024-02-21T09:26:15;9.20;95.60
55121;DHT22;41019;48.512;9.036;2024-02-21T09:28:43;9.10;95.50
55121;DHT22;41019;48.512;9.036;2024-02-21T09:31:09;9.20;95.20
55121;DHT22;41019;48.512;9.036;2024-02-21T09:33:35;9.20;95.40
55121;DHT22;41019;48.512;9.036;2024-02-21T09:36:02;9.30;95.40
55121;DHT22;41019;48.512;9.036;2024-02-21T09:38:31;9.50;95.50
55121;DHT22;41019;48.512;9.036;2024-02-21T09:41:09;9.60;95.50
55121;DHT22;41019;48.512;9.036;2024-02-21T09:43:40;9.80;94.80
55121;DHT22;41019;48.512;9.036;2024-02-21T09:46:08;10.00;94.00
55121;DHT22;41019;48.512;9.036;2024-02-21T09:51:04;10.30;93.30
55121;DHT22;41019;48.512;9.036;2024-02-21T09:53:32;10.50;92.20
55121;DHT22;41019;48.512;9.036;2024-02-21T09:55:59;10.60;92.60
55121;DHT22;41019;48.512;9.036;2024-02-21T09:58:27;10.80;92.70
55121;DHT22;41019;48.512;9.036;2024-02-21T10:00:54;11.00;92.40
55121;DHT22;41019;48.512;9.036;2024-02-21T10:03:19;11.30;91.50
55121;DHT22;41019;48.512;9.036;2024-02-21T10:05:48;11.40;91.70
55121;DHT22;41019;48.512;9.036;2024-02-21T10:08:15;11.60;91.30
55121;DHT22;41019;48.512;9.036;2024-02-21T10:10:45;11.80;91.00
55121;DHT22;41019;48.512;9.036;2024-02-21T10:13:26;12.00;89.40
55121;DHT22;41019;48.512;9.036;2024-02-21T10:16:05;12.20;90.20
55121;DHT22;41019;48.512;9.036;2024-02-21T10:18:31;12.30;89.00
55121;DHT22;41019;48.512;9.036;2024-02-21T10:21:03;12.40;89.30
55121;DHT22;41019;48.512;9.036;2024-02-21T10:23:40;12.50;88.40
55121;DHT22;41019;48.512;9.036;2024-02-21T10:26:07;12.60;88.30
55121;DHT22;41019;48.512;9.036;2024-02-21T10:28:33;12.70;88.60
55121;DHT22;41019;48.512;9.036;2024-02-21T10:30:59;12.80;86.00
55121;DHT22;41019;48.512;9.036;2024-02-21T10:33:25;12.90;86.80
55121;DHT22;41019;48.512;9.036;2024-02-21T10:35:53;13.00;86.10
55121;DHT22;41019;48.512;9.036;2024-02-21T10:38:19;13.10;85.80
55121;DHT22;41019;48.512;9.036;2024-02-21T10:40:47;13.30;84.50
55121;DHT22;41019;48.512;9.036;2024-02-21T10:43:16;13.30;83.70
55121;DHT22;41019;48.512;9.036;2024-02-21T10:45:45;13.50;84.00
55121;DHT22;41019;48.512;9.036;2024-02-21T10:48:14;13.60;83.60
55121;DHT22;41019;48.512;9.036;2024-02-21T10:50:57;13.70;82.60
55121;DHT22;41019;48.512;9.036;2024-02-21T10:56:48;13.90;80.70
55121;DHT22;41019;48.512;9.036;2024-02-21T10:59:08;14.10;79.50
55121;DHT22;41019;48.512;9.036;2024-02-21T11:01:34;14.20;78.40
55121;DHT22;41019;48.512;9.036;2024-02-21T11:04:06;14.20;77.20
55121;DHT22;41019;48.512;9.036;2024-02-21T11:06:35;14.20;78.20
55121;DHT22;41019;48.512;9.036;2024-02-21T11:09:03;14.10;77.90
55121;DHT22;41019;48.512;9.036;2024-02-21T11:11:40;14.20;77.70
55121;DHT22;41019;48.512;9.036;2024-02-21T11:14:20;14.20;76.20
55121;DHT22;41019;48.512;9.036;2024-02-21T11:16:47;14.30;75.00
55121;DHT22;41019;48.512;9.036;2024-02-21T11:19:24;14.30;76.10
55121;DHT22;41019;48.512;9.036;2024-02-21T11:21:52;14.40;75.40
55121;DHT22;41019;48.512;9.036;2024-02-21T11:24:38;14.40;74.30
55121;DHT22;41019;48.512;9.036;2024-02-21T11:27:23;14.50;74.80
55121;DHT22;41019;48.512;9.036;2024-02-21T11:29:56;14.50;74.20
55121;DHT22;41019;48.512;9.036;2024-02-21T11:32:23;14.50;72.80
55121;DHT22;41019;48.512;9.036;2024-02-21T11:35:21;14.50;73.70
55121;DHT22;41019;48.512;9.036;2024-02-21T11:37:47;14.60;72.70
55121;DHT22;41019;48.512;9.036;2024-02-21T11:40:13;14.50;73.80
55121;DHT22;41019;48.512;9.036;2024-02-21T11:42:39;14.50;74.20
55121;DHT22;41019;48.512;9.036;2024-02-21T11:45:06;14.60;73.40
55121;DHT22;41019;48.512;9.036;2024-02-21T11:47:34;14.60;72.40
55121;DHT22;41019;48.512;9.036;2024-02-21T11:50:00;14.50;72.70
55121;DHT22;41019;48.512;9.036;2024-02-21T11:52:26;14.50;73.30
55121;DHT22;41019;48.512;9.036;2024-02-21T11:54:54;14.60;73.00
55121;DHT22;41019;48.512;9.036;2024-02-21T11:57:21;14.60;73.30
55121;DHT22;41019;48.512;9.036;2024-02-21T11:59:47;14.60;71.10
55121;DHT22;41019;48.512;9.036;2024-02-21T12:02:15;14.80;73.00
55121;DHT22;41019;48.512;9.036;2024-02-21T12:04:42;14.70;71.30
55121;DHT22;41019;48.512;9.036;2024-02-21T12:07:09;14.80;71.90
55121;DHT22;41019;48.512;9.036;2024-02-21T12:09:35;14.80;71.30
55121;DHT22;41019;48.512;9.036;2024-02-21T12:12:05;14.90;69.80
55121;DHT22;41019;48.512;9.036;2024-02-21T12:14:33;14.90;70.40
55121;DHT22;41019;48.512;9.036;2024-02-21T12:17:01;15.00;70.20
55121;DHT22;41019;48.512;9.036;2024-02-21T12:19:30;14.90;69.50
55121;DHT22;41019;48.512;9.036;2024-02-21T12:21:58;15.00;69.90
55121;DHT22;41019;48.512;9.036;2024-02-21T12:24:26;15.00;70.60
55121;DHT22;41019;48.512;9.036;2024-02-21T12:26:53;15.20;68.50
55121;DHT22;41019;48.512;9.036;2024-02-21T12:29:20;15.10;68.80
55121;DHT22;41019;48.512;9.036;2024-02-21T12:31:46;15.10;69.50
55121;DHT22;41019;48.512;9.036;2024-02-21T12:34:13;15.10;69.10
55121;DHT22;41019;48.512;9.036;2024-02-21T12:36:43;15.20;69.70
55121;DHT22;41019;48.512;9.036;2024-02-21T12:39:10;15.20;68.90
55121;DHT22;41019;48.512;9.036;2024-02-21T12:41:37;15.20;68.40
55121;DHT22;41019;48.512;9.036;2024-02-21T12:44:05;15.20;69.00
55121;DHT22;41019;48.512;9.036;2024-02-21T12:46:35;15.20;70.80
55121;DHT22;41019;48.512;9.036;2024-02-21T12:49:01;15.20;70.30
55121;DHT22;41019;48.512;9.036;2024-02-21T12:51:28;15.10;69.70
55121;DHT22;41019;48.512;9.036;2024-02-21T12:53:55;15.10;70.00
55121;DHT22;41019;48.512;9.036;2024-02-21T12:56:22;15.00;70.00
55121;DHT22;41019;48.512;9.036;2024-02-21T12:58:47;15.00;70.30
55121;DHT22;41019;48.512;9.036;2024-02-21T13:01:13;15.10;71.60
55121;DHT22;41019;48.512;9.036;2024-02-21T13:03:39;15.10;70.70
55121;DHT22;41019;48.512;9.036;2024-02-21T13:06:05;15.20;70.70
55121;DHT22;41019;48.512;9.036;2024-02-21T13:08:37;15.20;70.00
55121;DHT22;41019;48.512;9.036;2024-02-21T13:11:03;15.20;70.00
55121;DHT22;41019;48.512;9.036;2024-02-21T13:13:30;15.10;70.10
55121;DHT22;41019;48.512;9.036;2024-02-21T13:15:57;15.20;69.70
55121;DHT22;41019;48.512;9.036;2024-02-21T13:18:23;15.10;70.90
55121;DHT22;41019;48.512;9.036;2024-02-21T13:20:49;15.30;69.40
55121;DHT22;41019;48.512;9.036;2024-02-21T13:23:15;15.20;69.20
55121;DHT22;41019;48.512;9.036;2024-02-21T13:25:40;15.30;68.60
55121;DHT22;41019;48.512;9.036;2024-02-21T13:28:07;15.30;67.90
55121;DHT22;41019;48.512;9.036;2024-02-21T13:30:35;15.30;67.70
55121;DHT22;41019;48.512;9.036;2024-02-21T13:33:01;15.30;67.50
55121;DHT22;41019;48.512;9.036;2024-02-21T13:35:28;15.40;67.30
55121;DHT22;41019;48.512;9.036;2024-02-21T13:37:55;15.30;67.80
55121;DHT22;41019;48.512;9.036;2024-02-21T13:40:21;15.40;68.50
55121;DHT22;41019;48.512;9.036;2024-02-21T13:42:46;15.30;67.60
55121;DHT22;41019;48.512;9.036;2024-02-21T13:45:14;15.40;67.80
55121;DHT22;41019;48.512;9.036;2024-02-21T13:47:40;15.40;67.60
55121;DHT22;41019;48.512;9.036;2024-02-21T13:50:06;15.50;67.40
55121;DHT22;41019;48.512;9.036;2024-02-21T13:52:37;15.40;67.50
55121;DHT22;41019;48.512;9.036;2024-02-21T13:55:03;15.40;68.40
55121;DHT22;41019;48.512;9.036;2024-02-21T13:57:29;15.50;69.30
55121;DHT22;41019;48.512;9.036;2024-02-21T13:59:55;15.40;69.60
55121;DHT22;41019;48.512;9.036;2024-02-21T14:02:20;15.50;69.40
55121;DHT22;41019;48.512;9.036;2024-02-21T14:04:47;15.40;69.10
55121;DHT22;41019;48.512;9.036;2024-02-21T14:07:13;15.30;69.50
55121;DHT22;41019;48.512;9.036;2024-02-21T14:09:39;15.30;69.70
55121;DHT22;41019;48.512;9.036;2024-02-21T14:12:05;15.20;69.70
55121;DHT22;41019;48.512;9.036;2024-02-21T14:14:35;15.20;69.30
55121;DHT22;41019;48.512;9.036;2024-02-21T14:17:01;15.20;69.30
55121;DHT22;41019;48.512;9.036;2024-02-21T14:19:27;15.20;69.70
55121;DHT22;41019;48.512;9.036;2024-02-21T14:21:53;15.10;68.70
55121;DHT22;41019;48.512;9.036;2024-02-21T14:24:19;15.20;68.60
55121;DHT22;41019;48.512;9.036;2024-02-21T14:26:45;15.20;69.10
55121;DHT22;41019;48.512;9.036;2024-02-21T14:29:11;15.10;69.00
55121;DHT22;41019;48.512;9.036;2024-02-21T14:31:38;15.10;69.20
55121;DHT22;41019;48.512;9.036;2024-02-21T14:34:04;15.10;69.40
55121;DHT22;41019;48.512;9.036;2024-02-21T14:36:30;15.10;69.60
55121;DHT22;41019;48.512;9.036;2024-02-21T14:38:56;15.10;68.80
55121;DHT22;41019;48.512;9.036;2024-02-21T14:41:21;15.10;69.00
55121;DHT22;41019;48.512;9.036;2024-02-21T14:43:47;15.10;69.20
55121;DHT22;41019;48.512;9.036;2024-02-21T14:46:13;15.00;69.90
55121;DHT22;41019;48.512;9.036;2024-02-21T14:48:39;15.00;68.50
55121;DHT22;41019;48.512;9.036;2024-02-21T14:51:05;15.00;66.80
55121;DHT22;41019;48.512;9.036;2024-02-21T14:53:30;15.00;66.90
55121;DHT22;41019;48.512;9.036;2024-02-21T14:55:57;15.00;64.90
55121;DHT22;41019;48.512;9.036;2024-02-21T14:58:25;14.90;65.60
55121;DHT22;41019;48.512;9.036;2024-02-21T15:00:51;14.90;67.60
55121;DHT22;41019;48.512;9.036;2024-02-21T15:03:17;14.90;67.00
55121;DHT22;41019;48.512;9.036;2024-02-21T15:05:47;14.80;66.90
55121;DHT22;41019;48.512;9.036;2024-02-21T15:08:13;14.70;67.50
55121;DHT22;41019;48.512;9.036;2024-02-21T15:10:43;14.70;67.50
55121;DHT22;41019;48.512;9.036;2024-02-21T15:13:09;14.70;66.50
55121;DHT22;41019;48.512;9.036;2024-02-21T15:15:35;14.60;66.80
55121;DHT22;41019;48.512;9.036;2024-02-21T15:18:01;14.60;66.60
55121;DHT22;41019;48.512;9.036;2024-02-21T15:20:26;14.50;67.20
55121;DHT22;41019;48.512;9.036;2024-02-21T15:22:53;14.50;67.70
55121;DHT22;41019;48.512;9.036;2024-02-21T15:25:19;14.40;67.80
55121;DHT22;41019;48.512;9.036;2024-02-21T15:27:46;14.40;68.10
55121;DHT22;41019;48.512;9.036;2024-02-21T15:30:13;14.40;68.90
55121;DHT22;41019;48.512;9.036;2024-02-21T15:32:39;14.40;70.00
55121;DHT22;41019;48.512;9.036;2024-02-21T15:35:06;14.40;66.60
55121;DHT22;41019;48.512;9.036;2024-02-21T15:37:33;14.30;68.20
55121;DHT22;41019;48.512;9.036;2024-02-21T15:39:59;14.30;68.40
55121;DHT22;41019;48.512;9.036;2024-02-21T15:42:24;14.20;69.90
55121;DHT22;41019;48.512;9.036;2024-02-21T15:44:51;14.20;71.00